sensor_id;sensor_type;location;lat;lon;timestamp;P1;durP1;ratioP1;P2;durP2;ratioP2
19492;SDS011;9887;54.366;10.958;2024-03-23T00:53:54;22.92;;;4.30;;
19492;SDS011;9887;54.366;10.958;2024-03-23T00:56:21;17.58;;;3.42;;
19492;SDS011;9887;54.366;10.958;2024-03-23T00:58:47;18.98;;;4.15;;
19492;SDS011;9887;54.366;10.958;2024-03-23T01:01:14;17.77;;;3.88;;
19492;SDS011;9887;54.366;10.958;2024-03-23T01:03:39;18.67;;;3.22;;
19492;SDS011;9887;54.366;10.958;2024-03-23T01:06:06;19.00;;;3.20;;
19492;SDS011;9887;54.366;10.958;2024-03-23T01:08:34;16.00;;;3.42;;
19492;SDS011;9887;54.366;10.958;2024-03-23T01:11:01;16.77;;;3.17;;
19492;SDS011;9887;54.366;10.958;2024-03-23T01:13:27;17.67;;;3.35;;
19492;SDS011;9887;54.366;10.958;2024-03-23T01:15:55;16.23;;;2.95;;
19492;SDS011;9887;54.366;10.958;2024-03-23T01:18:22;18.58;;;3.00;;
19492;SDS011;9887;54.366;10.958;2024-03-23T01:20:51;20.52;;;3.42;;
19492;SDS011;9887;54.366;10.958;2024-03-23T01:23:17;14.25;;;2.92;;
19492;SDS011;9887;54.366;10.958;2024-03-23T01:25:52;17.58;;;3.53;;
19492;SDS011;9887;54.366;10.958;2024-03-23T01:28:18;16.02;;;3.67;;
19492;SDS011;9887;54.366;10.958;2024-03-23T01:30:45;18.83;;;3.65;;
19492;SDS011;9887;54.366;10.958;2024-03-23T01:33:11;12.93;;;2.95;;
19492;SDS011;9887;54.366;10.958;2024-03-23T01:35:38;18.83;;;3.90;;
19492;SDS011;9887;54.366;10.958;2024-03-23T01:38:05;17.50;;;3.05;;
19492;SDS011;9887;54.366;10.958;2024-03-23T01:40:32;14.65;;;3.22;;
19492;SDS011;9887;54.366;10.958;2024-03-23T01:43:02;12.52;;;3.13;;
19492;SDS011;9887;54.366;10.958;2024-03-23T01:45:31;17.02;;;2.97;;
19492;SDS011;9887;54.366;10.958;2024-03-23T01:47:57;17.83;;;3.20;;
19492;SDS011;9887;54.366;10.958;2024-03-23T01:50:24;21.15;;;4.10;;
19492;SDS011;9887;54.366;10.958;2024-03-23T01:52:51;15.55;;;3.33;;
19492;SDS011;9887;54.366;10.958;2024-03-23T01:55:18;9.50;;;2.67;;
19492;SDS011;9887;54.366;10.958;2024-03-23T01:57:44;15.57;;;3.88;;
19492;SDS011;9887;54.366;10.958;2024-03-23T02:00:13;19.25;;;3.95;;
19492;SDS011;9887;54.366;10.958;2024-03-23T02:02:43;12.40;;;2.80;;
19492;SDS011;9887;54.366;10.958;2024-03-23T02:05:10;14.73;;;2.95;;
19492;SDS011;9887;54.366;10.958;2024-03-23T02:07:37;14.93;;;3.50;;
19492;SDS011;9887;54.366;10.958;2024-03-23T02:10:05;17.77;;;3.38;;
19492;SDS011;9887;54.366;10.958;2024-03-23T02:12:32;14.07;;;3.75;;
19492;SDS011;9887;54.366;10.958;2024-03-23T02:14:59;15.60;;;3.92;;
19492;SDS011;9887;54.366;10.958;2024-03-23T02:17:26;21.40;;;3.65;;
19492;SDS011;9887;54.366;10.958;2024-03-23T02:19:53;18.80;;;3.45;;
19492;SDS011;9887;54.366;10.958;2024-03-23T02:22:19;13.25;;;3.15;;
19492;SDS011;9887;54.366;10.958;2024-03-23T02:24:48;15.60;;;3.20;;
19492;SDS011;9887;54.366;10.958;2024-03-23T02:27:14;16.15;;;2.65;;
19492;SDS011;9887;54.366;10.958;2024-03-23T02:29:41;15.32;;;3.83;;
19492;SDS011;9887;54.366;10.958;2024-03-23T02:32:06;15.98;;;2.92;;
19492;SDS011;9887;54.366;10.958;2024-03-23T02:34:35;14.20;;;3.13;;
19492;SDS011;9887;54.366;10.958;2024-03-23T02:37:01;18.55;;;3.33;;
19492;SDS011;9887;54.366;10.958;2024-03-23T02:39:28;11.68;;;3.05;;
19492;SDS011;9887;54.366;10.958;2024-03-23T02:41:55;16.38;;;3.30;;
19492;SDS011;9887;54.366;10.958;2024-03-23T02:44:22;15.10;;;3.08;;
19492;SDS011;9887;54.366;10.958;2024-03-23T02:46:48;14.68;;;2.97;;
19492;SDS011;9887;54.366;10.958;2024-03-23T02:49:15;16.52;;;2.92;;
19492;SDS011;9887;54.366;10.958;2024-03-23T02:51:41;19.33;;;3.35;;
19492;SDS011;9887;54.366;10.958;2024-03-23T02:54:10;16.35;;;2.90;;
19492;SDS011;9887;54.366;10.958;2024-03-23T02:56:36;17.48;;;2.97;;
19492;SDS011;9887;54.366;10.958;2024-03-23T02:59:04;13.73;;;2.65;;
19492;SDS011;9887;54.366;10.958;2024-03-23T03:01:30;13.10;;;3.05;;
19492;SDS011;9887;54.366;10.958;2024-03-23T03:03:57;13.63;;;2.83;;
19492;SDS011;9887;54.366;10.958;2024-03-23T03:06:23;12.65;;;2.53;;
19492;SDS011;9887;54.366;10.958;2024-03-23T03:08:50;22.00;;;3.15;;
19492;SDS011;9887;54.366;10.958;2024-03-23T03:11:16;17.67;;;3.25;;
19492;SDS011;9887;54.366;10.958;2024-03-23T03:13:43;15.43;;;3.38;;
19492;SDS011;9887;54.366;10.958;2024-03-23T03:16:11;17.20;;;3.53;;
19492;SDS011;9887;54.366;10.958;2024-03-23T03:18:38;16.60;;;3.00;;
19492;SDS011;9887;54.366;10.958;2024-03-23T03:21:05;13.63;;;2.90;;
19492;SDS011;9887;54.366;10.958;2024-03-23T03:23:36;19.02;;;3.47;;
19492;SDS011;9887;54.366;10.958;2024-03-23T03:26:02;15.43;;;2.97;;
19492;SDS011;9887;54.366;10.958;2024-03-23T03:28:30;16.58;;;2.90;;
19492;SDS011;9887;54.366;10.958;2024-03-23T03:30:56;14.73;;;3.10;;
19492;SDS011;9887;54.366;10.958;2024-03-23T03:33:26;12.57;;;3.15;;
19492;SDS011;9887;54.366;10.958;2024-03-23T03:35:52;12.65;;;2.78;;
19492;SDS011;9887;54.366;10.958;2024-03-23T03:38:19;13.98;;;3.13;;
19492;SDS011;9887;54.366;10.958;2024-03-23T03:40:45;14.93;;;2.78;;
19492;SDS011;9887;54.366;10.958;2024-03-23T03:43:12;16.30;;;2.83;;
19492;SDS011;9887;54.366;10.958;2024-03-23T03:45:38;12.82;;;3.22;;
19492;SDS011;9887;54.366;10.958;2024-03-23T03:48:06;18.70;;;3.70;;
19492;SDS011;9887;54.366;10.958;2024-03-23T03:50:34;15.90;;;3.67;;
19492;SDS011;9887;54.366;10.958;2024-03-23T03:53:01;13.95;;;2.80;;
19492;SDS011;9887;54.366;10.958;2024-03-23T03:55:27;16.67;;;3.22;;
19492;SDS011;9887;54.366;10.958;2024-03-23T03:57:53;10.80;;;2.72;;
19492;SDS011;9887;54.366;10.958;2024-03-23T04:00:19;12.98;;;2.70;;
19492;SDS011;9887;54.366;10.958;2024-03-23T04:02:46;12.25;;;2.63;;
19492;SDS011;9887;54.366;10.958;2024-03-23T04:05:12;13.27;;;2.92;;
19492;SDS011;9887;54.366;10.958;2024-03-23T04:07:41;19.55;;;3.28;;
19492;SDS011;9887;54.366;10.958;2024-03-23T04:10:08;15.85;;;3.00;;
19492;SDS011;9887;54.366;10.958;2024-03-23T04:12:35;16.00;;;3.22;;
19492;SDS011;9887;54.366;10.958;2024-03-23T04:15:01;16.52;;;3.50;;
19492;SDS011;9887;54.366;10.958;2024-03-23T04:17:30;14.02;;;2.47;;
19492;SDS011;9887;54.366;10.958;2024-03-23T04:19:58;13.98;;;3.08;;
19492;SDS011;9887;54.366;10.958;2024-03-23T04:22:25;19.90;;;3.65;;
19492;SDS011;9887;54.366;10.958;2024-03-23T04:24:54;13.95;;;3.10;;
19492;SDS011;9887;54.366;10.958;2024-03-23T04:27:22;16.25;;;2.95;;
19492;SDS011;9887;54.366;10.958;2024-03-23T04:29:48;13.43;;;3.00;;
19492;SDS011;9887;54.366;10.958;2024-03-23T04:32:15;10.07;;;2.97;;
19492;SDS011;9887;54.366;10.958;2024-03-23T04:34:42;16.02;;;3.40;;
19492;SDS011;9887;54.366;10.958;2024-03-23T04:37:10;15.23;;;2.92;;
19492;SDS011;9887;54.366;10.958;2024-03-23T04:39:37;18.98;;;3.40;;
19492;SDS011;9887;54.366;10.958;2024-03-23T04:42:06;14.90;;;3.00;;
19492;SDS011;9887;54.366;10.958;2024-03-23T04:44:33;17.13;;;3.13;;
19492;SDS011;9887;54.366;10.958;2024-03-23T04:47:00;17.27;;;3.38;;
19492;SDS011;9887;54.366;10.958;2024-03-23T04:49:27;12.05;;;3.08;;
19492;SDS011;9887;54.366;10.958;2024-03-23T04:51:55;15.25;;;3.17;;
19492;SDS011;9887;54.366;10.958;2024-03-23T04:54:22;12.70;;;3.00;;
19492;SDS011;9887;54.366;10.958;2024-03-23T04:56:49;14.07;;;3.15;;
19492;SDS011;9887;54.366;10.958;2024-03-23T04:59:17;17.75;;;3.40;;
19492;SDS011;9887;54.366;10.958;2024-03-23T05:01:43;11.85;;;2.80;;
19492;SDS011;9887;54.366;10.958;2024-03-23T05:04:10;13.18;;;2.90;;
19492;SDS011;9887;54.366;10.958;2024-03-23T05:06:36;13.27;;;3.00;;
19492;SDS011;9887;54.366;10.958;2024-03-23T05:09:03;12.75;;;3.00;;
19492;SDS011;9887;54.366;10.958;2024-03-23T05:11:31;14.60;;;3.78;;
19492;SDS011;9887;54.366;10.958;2024-03-23T05:13:58;15.18;;;3.00;;
19492;SDS011;9887;54.366;10.958;2024-03-23T05:16:26;12.45;;;2.85;;
19492;SDS011;9887;54.366;10.958;2024-03-23T05:18:53;14.65;;;3.10;;
19492;SDS011;9887;54.366;10.958;2024-03-23T05:21:19;13.13;;;3.10;;
19492;SDS011;9887;54.366;10.958;2024-03-23T05:23:46;18.15;;;3.60;;
19492;SDS011;9887;54.366;10.958;2024-03-23T05:26:12;17.35;;;3.42;;
19492;SDS011;9887;54.366;10.958;2024-03-23T05:28:40;16.38;;;4.03;;
19492;SDS011;9887;54.366;10.958;2024-03-23T05:31:06;21.40;;;4.63;;
19492;SDS011;9887;54.366;10.958;2024-03-23T05:33:35;20.70;;;4.47;;
19492;SDS011;9887;54.366;10.958;2024-03-23T05:36:03;22.02;;;4.38;;
19492;SDS011;9887;54.366;10.958;2024-03-23T05:38:31;19.10;;;3.55;;
19492;SDS011;9887;54.366;10.958;2024-03-23T05:40:58;15.85;;;3.72;;
19492;SDS011;9887;54.366;10.958;2024-03-23T05:43:25;19.83;;;3.35;;
19492;SDS011;9887;54.366;10.958;2024-03-23T05:45:55;22.20;;;4.85;;
19492;SDS011;9887;54.366;10.958;2024-03-23T05:48:22;15.70;;;3.38;;
19492;SDS011;9887;54.366;10.958;2024-03-23T05:50:50;25.05;;;4.05;;
19492;SDS011;9887;54.366;10.958;2024-03-23T05:53:17;16.83;;;3.53;;
19492;SDS011;9887;54.366;10.958;2024-03-23T05:55:44;19.63;;;4.35;;
19492;SDS011;9887;54.366;10.958;2024-03-23T05:58:11;17.65;;;3.28;;
19492;SDS011;9887;54.366;10.958;2024-03-23T06:00:37;15.02;;;3.55;;
19492;SDS011;9887;54.366;10.958;2024-03-23T06:03:04;16.58;;;3.53;;
19492;SDS011;9887;54.366;10.958;2024-03-23T06:05:30;17.95;;;4.53;;
19492;SDS011;9887;54.366;10.958;2024-03-23T06:07:58;14.07;;;3.90;;
19492;SDS011;9887;54.366;10.958;2024-03-23T06:10:24;17.45;;;3.50;;
19492;SDS011;9887;54.366;10.958;2024-03-23T06:12:51;18.33;;;3.50;;
19492;SDS011;9887;54.366;10.958;2024-03-23T06:15:17;17.73;;;4.05;;
19492;SDS011;9887;54.366;10.958;2024-03-23T06:17:44;16.08;;;3.22;;
19492;SDS011;9887;54.366;10.958;2024-03-23T06:20:10;19.20;;;3.78;;
19492;SDS011;9887;54.366;10.958;2024-03-23T06:22:38;19.25;;;3.40;;
19492;SDS011;9887;54.366;10.958;2024-03-23T06:25:06;16.40;;;3.30;;
19492;SDS011;9887;54.366;10.958;2024-03-23T06:27:34;20.30;;;4.07;;
19492;SDS011;9887;54.366;10.958;2024-03-23T06:30:00;19.20;;;3.60;;
19492;SDS011;9887;54.366;10.958;2024-03-23T06:32:27;19.63;;;4.07;;
19492;SDS011;9887;54.366;10.958;2024-03-23T06:34:54;17.98;;;4.07;;
19492;SDS011;9887;54.366;10.958;2024-03-23T06:37:21;15.73;;;3.53;;
19492;SDS011;9887;54.366;10.958;2024-03-23T06:39:47;16.70;;;3.88;;
19492;SDS011;9887;54.366;10.958;2024-03-23T06:42:16;17.05;;;4.20;;
19492;SDS011;9887;54.366;10.958;2024-03-23T06:44:42;18.58;;;3.75;;
19492;SDS011;9887;54.366;10.958;2024-03-23T06:47:10;18.17;;;3.95;;
19492;SDS011;9887;54.366;10.958;2024-03-23T06:49:36;18.00;;;4.28;;
19492;SDS011;9887;54.366;10.958;2024-03-23T06:52:03;16.67;;;3.92;;
19492;SDS011;9887;54.366;10.958;2024-03-23T06:54:29;18.17;;;3.75;;
19492;SDS011;9887;54.366;10.958;2024-03-23T06:56:56;17.33;;;3.75;;
19492;SDS011;9887;54.366;10.958;2024-03-23T06:59:23;16.08;;;3.70;;
19492;SDS011;9887;54.366;10.958;2024-03-23T07:01:50;17.65;;;3.97;;
19492;SDS011;9887;54.366;10.958;2024-03-23T07:04:16;23.60;;;5.15;;
19492;SDS011;9887;54.366;10.958;2024-03-23T07:06:44;20.73;;;4.70;;
19492;SDS011;9887;54.366;10.958;2024-03-23T07:09:10;16.02;;;3.78;;
19492;SDS011;9887;54.366;10.958;2024-03-23T07:11:37;16.77;;;4.60;;
19492;SDS011;9887;54.366;10.958;2024-03-23T07:14:03;18.40;;;4.03;;
19492;SDS011;9887;54.366;10.958;2024-03-23T07:16:32;17.10;;;4.35;;
19492;SDS011;9887;54.366;10.958;2024-03-23T07:18:58;20.38;;;4.10;;
19492;SDS011;9887;54.366;10.958;2024-03-23T07:21:25;24.63;;;4.80;;
19492;SDS011;9887;54.366;10.958;2024-03-23T07:23:51;18.38;;;3.70;;
19492;SDS011;9887;54.366;10.958;2024-03-23T07:26:18;18.08;;;3.97;;
19492;SDS011;9887;54.366;10.958;2024-03-23T07:28:44;16.85;;;4.00;;
19492;SDS011;9887;54.366;10.958;2024-03-23T07:31:12;16.23;;;4.43;;
19492;SDS011;9887;54.366;10.958;2024-03-23T07:33:43;20.20;;;4.93;;
19492;SDS011;9887;54.366;10.958;2024-03-23T07:36:11;16.10;;;4.03;;
19492;SDS011;9887;54.366;10.958;2024-03-23T07:38:39;13.55;;;4.07;;
19492;SDS011;9887;54.366;10.958;2024-03-23T07:41:07;21.17;;;4.90;;
19492;SDS011;9887;54.366;10.958;2024-03-23T07:43:34;17.67;;;5.25;;
19492;SDS011;9887;54.366;10.958;2024-03-23T07:46:02;17.15;;;4.60;;
19492;SDS011;9887;54.366;10.958;2024-03-23T07:48:29;16.73;;;4.57;;
19492;SDS011;9887;54.366;10.958;2024-03-23T07:51:01;22.52;;;5.38;;
19492;SDS011;9887;54.366;10.958;2024-03-23T07:53:28;21.80;;;5.38;;
19492;SDS011;9887;54.366;10.958;2024-03-23T07:55:56;15.40;;;4.32;;
19492;SDS011;9887;54.366;10.958;2024-03-23T07:58:23;16.30;;;4.75;;
19492;SDS011;9887;54.366;10.958;2024-03-23T08:00:50;16.88;;;5.40;;
19492;SDS011;9887;54.366;10.958;2024-03-23T08:03:16;19.88;;;5.18;;
19492;SDS011;9887;54.366;10.958;2024-03-23T08:05:43;20.58;;;5.50;;
19492;SDS011;9887;54.366;10.958;2024-03-23T08:08:10;19.35;;;4.95;;
19492;SDS011;9887;54.366;10.958;2024-03-23T08:10:37;20.38;;;5.65;;
19492;SDS011;9887;54.366;10.958;2024-03-23T08:13:12;20.65;;;4.70;;
19492;SDS011;9887;54.366;10.958;2024-03-23T08:15:39;17.98;;;5.05;;
19492;SDS011;9887;54.366;10.958;2024-03-23T08:18:05;18.65;;;4.65;;
19492;SDS011;9887;54.366;10.958;2024-03-23T08:20:31;20.38;;;4.72;;
19492;SDS011;9887;54.366;10.958;2024-03-23T08:22:58;18.65;;;4.80;;
19492;SDS011;9887;54.366;10.958;2024-03-23T08:25:26;14.93;;;3.85;;
19492;SDS011;9887;54.366;10.958;2024-03-23T08:27:52;21.92;;;5.28;;
19492;SDS011;9887;54.366;10.958;2024-03-23T08:30:19;21.98;;;5.70;;
19492;SDS011;9887;54.366;10.958;2024-03-23T08:32:45;21.70;;;5.20;;
19492;SDS011;9887;54.366;10.958;2024-03-23T08:35:13;16.98;;;5.35;;
19492;SDS011;9887;54.366;10.958;2024-03-23T08:37:39;20.80;;;5.70;;
19492;SDS011;9887;54.366;10.958;2024-03-23T08:40:06;18.15;;;5.00;;
19492;SDS011;9887;54.366;10.958;2024-03-23T08:42:35;21.23;;;5.80;;
19492;SDS011;9887;54.366;10.958;2024-03-23T08:45:02;20.77;;;6.07;;
19492;SDS011;9887;54.366;10.958;2024-03-23T08:47:29;25.85;;;5.70;;
19492;SDS011;9887;54.366;10.958;2024-03-23T08:49:56;24.98;;;5.28;;
19492;SDS011;9887;54.366;10.958;2024-03-23T08:52:23;16.25;;;5.18;;
19492;SDS011;9887;54.366;10.958;2024-03-23T08:54:52;16.95;;;4.95;;
19492;SDS011;9887;54.366;10.958;2024-03-23T08:57:18;13.20;;;5.15;;
19492;SDS011;9887;54.366;10.958;2024-03-23T08:59:46;22.73;;;5.38;;
19492;SDS011;9887;54.366;10.958;2024-03-23T09:02:12;20.80;;;5.25;;
19492;SDS011;9887;54.366;10.958;2024-03-23T09:04:39;22.63;;;5.70;;
19492;SDS011;9887;54.366;10.958;2024-03-23T09:07:05;20.45;;;5.60;;
19492;SDS011;9887;54.366;10.958;2024-03-23T09:09:32;18.27;;;5.22;;
19492;SDS011;9887;54.366;10.958;2024-03-23T09:11:58;19.73;;;6.50;;
19492;SDS011;9887;54.366;10.958;2024-03-23T09:14:25;19.45;;;5.00;;
19492;SDS011;9887;54.366;10.958;2024-03-23T09:16:53;16.55;;;4.80;;
19492;SDS011;9887;54.366;10.958;2024-03-23T09:19:20;22.30;;;5.65;;
19492;SDS011;9887;54.366;10.958;2024-03-23T09:21:46;23.95;;;5.72;;
19492;SDS011;9887;54.366;10.958;2024-03-23T09:24:13;17.67;;;5.88;;
19492;SDS011;9887;54.366;10.958;2024-03-23T09:26:39;18.80;;;5.18;;
19492;SDS011;9887;54.366;10.958;2024-03-23T09:29:06;16.80;;;5.30;;
19492;SDS011;9887;54.366;10.958;2024-03-23T09:31:32;14.50;;;4.55;;
19492;SDS011;9887;54.366;10.958;2024-03-23T09:34:00;19.35;;;5.95;;
19492;SDS011;9887;54.366;10.958;2024-03-23T09:36:26;18.08;;;5.40;;
19492;SDS011;9887;54.366;10.958;2024-03-23T09:38:53;15.27;;;5.25;;
19492;SDS011;9887;54.366;10.958;2024-03-23T09:41:19;14.75;;;5.32;;
19492;SDS011;9887;54.366;10.958;2024-03-23T09:43:46;18.17;;;5.35;;
19492;SDS011;9887;54.366;10.958;2024-03-23T09:46:13;22.48;;;5.55;;
19492;SDS011;9887;54.366;10.958;2024-03-23T09:48:41;17.10;;;5.43;;
19492;SDS011;9887;54.366;10.958;2024-03-23T09:51:10;20.05;;;6.15;;
19492;SDS011;9887;54.366;10.958;2024-03-23T09:53:37;19.38;;;5.43;;
19492;SDS011;9887;54.366;10.958;2024-03-23T09:56:04;14.75;;;4.72;;
19492;SDS011;9887;54.366;10.958;2024-03-23T09:58:31;19.38;;;5.75;;
19492;SDS011;9887;54.366;10.958;2024-03-23T10:00:57;19.63;;;5.25;;
19492;SDS011;9887;54.366;10.958;2024-03-23T10:03:24;17.90;;;5.13;;
19492;SDS011;9887;54.366;10.958;2024-03-23T10:06:00;10.88;;;3.50;;
19492;SDS011;9887;54.366;10.958;2024-03-23T10:08:29;8.27;;;3.00;;
19492;SDS011;9887;54.366;10.958;2024-03-23T10:10:55;7.97;;;1.90;;
19492;SDS011;9887;54.366;10.958;2024-03-23T10:13:26;8.50;;;1.42;;
19492;SDS011;9887;54.366;10.958;2024-03-23T10:15:55;4.60;;;1.40;;
19492;SDS011;9887;54.366;10.958;2024-03-23T10:18:23;6.40;;;1.20;;
19492;SDS011;9887;54.366;10.958;2024-03-23T10:20:50;6.82;;;1.40;;
19492;SDS011;9887;54.366;10.958;2024-03-23T10:23:18;8.05;;;1.67;;
19492;SDS011;9887;54.366;10.958;2024-03-23T10:25:46;3.95;;;0.90;;
19492;SDS011;9887;54.366;10.958;2024-03-23T10:28:13;7.80;;;1.38;;
19492;SDS011;9887;54.366;10.958;2024-03-23T10:30:39;4.60;;;1.80;;
19492;SDS011;9887;54.366;10.958;2024-03-23T10:33:09;3.10;;;1.05;;
19492;SDS011;9887;54.366;10.958;2024-03-23T10:35:36;3.08;;;0.90;;
19492;SDS011;9887;54.366;10.958;2024-03-23T10:38:04;3.22;;;1.10;;
19492;SDS011;9887;54.366;10.958;2024-03-23T10:40:31;3.92;;;0.80;;
19492;SDS011;9887;54.366;10.958;2024-03-23T10:43:02;5.65;;;0.77;;
19492;SDS011;9887;54.366;10.958;2024-03-23T10:45:29;3.38;;;0.93;;
19492;SDS011;9887;54.366;10.958;2024-03-23T10:47:56;5.10;;;0.93;;
19492;SDS011;9887;54.366;10.958;2024-03-23T10:50:23;2.88;;;0.80;;
19492;SDS011;9887;54.366;10.958;2024-03-23T10:52:50;3.58;;;0.90;;
19492;SDS011;9887;54.366;10.958;2024-03-23T10:55:19;5.18;;;1.02;;
19492;SDS011;9887;54.366;10.958;2024-03-23T10:57:49;7.45;;;0.98;;
19492;SDS011;9887;54.366;10.958;2024-03-23T11:00:19;5.80;;;1.00;;
19492;SDS011;9887;54.366;10.958;2024-03-23T11:02:48;5.18;;;0.85;;
19492;SDS011;9887;54.366;10.958;2024-03-23T11:05:27;6.60;;;0.90;;
19492;SDS011;9887;54.366;10.958;2024-03-23T11:07:55;3.85;;;1.15;;
19492;SDS011;9887;54.366;10.958;2024-03-23T11:10:25;2.45;;;0.90;;
19492;SDS011;9887;54.366;10.958;2024-03-23T11:12:54;3.28;;;0.85;;
19492;SDS011;9887;54.366;10.958;2024-03-23T11:15:21;3.72;;;0.90;;
19492;SDS011;9887;54.366;10.958;2024-03-23T11:18:04;3.35;;;0.95;;
19492;SDS011;9887;54.366;10.958;2024-03-23T11:20:33;4.22;;;1.10;;
19492;SDS011;9887;54.366;10.958;2024-03-23T11:23:00;5.82;;;0.95;;
19492;SDS011;9887;54.366;10.958;2024-03-23T11:25:27;3.22;;;0.80;;
19492;SDS011;9887;54.366;10.958;2024-03-23T11:27:55;2.03;;;0.65;;
19492;SDS011;9887;54.366;10.958;2024-03-23T11:30:24;2.40;;;0.90;;
19492;SDS011;9887;54.366;10.958;2024-03-23T11:32:52;2.45;;;0.65;;
19492;SDS011;9887;54.366;10.958;2024-03-23T11:35:26;3.53;;;0.70;;
19492;SDS011;9887;54.366;10.958;2024-03-23T11:38:01;2.13;;;0.57;;
19492;SDS011;9887;54.366;10.958;2024-03-23T11:40:30;2.60;;;0.70;;
19492;SDS011;9887;54.366;10.958;2024-03-23T11:42:58;1.77;;;0.75;;
19492;SDS011;9887;54.366;10.958;2024-03-23T11:45:26;2.83;;;0.88;;
19492;SDS011;9887;54.366;10.958;2024-03-23T11:48:04;2.58;;;0.73;;
19492;SDS011;9887;54.366;10.958;2024-03-23T11:50:31;2.10;;;0.60;;
19492;SDS011;9887;54.366;10.958;2024-03-23T11:53:08;3.42;;;1.00;;
19492;SDS011;9887;54.366;10.958;2024-03-23T11:55:39;3.55;;;1.02;;
19492;SDS011;9887;54.366;10.958;2024-03-23T11:58:08;6.75;;;1.30;;
19492;SDS011;9887;54.366;10.958;2024-03-23T12:00:36;6.18;;;1.10;;
19492;SDS011;9887;54.366;10.958;2024-03-23T12:03:03;2.83;;;0.80;;
19492;SDS011;9887;54.366;10.958;2024-03-23T12:05:31;6.53;;;1.30;;
19492;SDS011;9887;54.366;10.958;2024-03-23T12:08:17;4.60;;;1.15;;
19492;SDS011;9887;54.366;10.958;2024-03-23T12:10:47;4.82;;;1.00;;
19492;SDS011;9887;54.366;10.958;2024-03-23T12:13:16;5.88;;;1.20;;
19492;SDS011;9887;54.366;10.958;2024-03-23T12:15:49;7.38;;;1.50;;
19492;SDS011;9887;54.366;10.958;2024-03-23T12:18:17;6.65;;;1.38;;
19492;SDS011;9887;54.366;10.958;2024-03-23T12:20:48;6.82;;;1.58;;
19492;SDS011;9887;54.366;10.958;2024-03-23T12:23:16;9.75;;;2.40;;
19492;SDS011;9887;54.366;10.958;2024-03-23T12:25:42;10.65;;;2.30;;
19492;SDS011;9887;54.366;10.958;2024-03-23T12:28:09;5.65;;;1.30;;
19492;SDS011;9887;54.366;10.958;2024-03-23T12:30:36;11.93;;;1.65;;
19492;SDS011;9887;54.366;10.958;2024-03-23T12:33:07;11.18;;;2.38;;
19492;SDS011;9887;54.366;10.958;2024-03-23T12:35:33;4.93;;;1.40;;
19492;SDS011;9887;54.366;10.958;2024-03-23T12:38:00;5.43;;;1.50;;
19492;SDS011;9887;54.366;10.958;2024-03-23T12:40:26;4.57;;;1.30;;
19492;SDS011;9887;54.366;10.958;2024-03-23T12:42:53;6.75;;;2.10;;
19492;SDS011;9887;54.366;10.958;2024-03-23T12:45:19;7.50;;;1.85;;
19492;SDS011;9887;54.366;10.958;2024-03-23T12:47:46;6.70;;;1.65;;
19492;SDS011;9887;54.366;10.958;2024-03-23T12:50:14;8.60;;;1.73;;
19492;SDS011;9887;54.366;10.958;2024-03-23T12:52:41;6.13;;;1.35;;
19492;SDS011;9887;54.366;10.958;2024-03-23T12:55:07;8.73;;;1.60;;
19492;SDS011;9887;54.366;10.958;2024-03-23T12:57:34;4.80;;;1.15;;
19492;SDS011;9887;54.366;10.958;2024-03-23T13:00:01;7.35;;;1.83;;
19492;SDS011;9887;54.366;10.958;2024-03-23T13:02:30;4.80;;;1.50;;
19492;SDS011;9887;54.366;10.958;2024-03-23T13:04:56;8.88;;;1.23;;
19492;SDS011;9887;54.366;10.958;2024-03-23T13:07:24;6.85;;;1.10;;
19492;SDS011;9887;54.366;10.958;2024-03-23T13:09:51;4.80;;;1.05;;
19492;SDS011;9887;54.366;10.958;2024-03-23T13:12:18;7.70;;;1.25;;
19492;SDS011;9887;54.366;10.958;2024-03-23T13:14:44;4.07;;;1.13;;
19492;SDS011;9887;54.366;10.958;2024-03-23T13:17:11;6.15;;;1.30;;
19492;SDS011;9887;54.366;10.958;2024-03-23T13:19:38;5.45;;;1.00;;
19492;SDS011;9887;54.366;10.958;2024-03-23T13:22:04;7.90;;;1.00;;
19492;SDS011;9887;54.366;10.958;2024-03-23T13:24:33;6.38;;;1.13;;
19492;SDS011;9887;54.366;10.958;2024-03-23T13:26:59;6.53;;;1.08;;
19492;SDS011;9887;54.366;10.958;2024-03-23T13:29:26;4.20;;;1.02;;
19492;SDS011;9887;54.366;10.958;2024-03-23T13:31:52;7.78;;;1.45;;
19492;SDS011;9887;54.366;10.958;2024-03-23T13:34:19;6.28;;;1.40;;
19492;SDS011;9887;54.366;10.958;2024-03-23T13:36:45;5.47;;;1.35;;
19492;SDS011;9887;54.366;10.958;2024-03-23T13:39:13;4.78;;;1.00;;
19492;SDS011;9887;54.366;10.958;2024-03-23T13:41:42;6.88;;;1.15;;
19492;SDS011;9887;54.366;10.958;2024-03-23T13:44:10;4.82;;;1.00;;
19492;SDS011;9887;54.366;10.958;2024-03-23T13:46:37;4.57;;;1.17;;
19492;SDS011;9887;54.366;10.958;2024-03-23T13:49:04;3.72;;;0.90;;
19492;SDS011;9887;54.366;10.958;2024-03-23T13:51:31;5.95;;;1.00;;
19492;SDS011;9887;54.366;10.958;2024-03-23T13:53:58;6.70;;;1.08;;
19492;SDS011;9887;54.366;10.958;2024-03-23T13:56:26;3.78;;;1.10;;
19492;SDS011;9887;54.366;10.958;2024-03-23T13:58:55;4.93;;;1.08;;
19492;SDS011;9887;54.366;10.958;2024-03-23T14:01:22;4.70;;;0.90;;
19492;SDS011;9887;54.366;10.958;2024-03-23T14:03:49;7.53;;;1.13;;
19492;SDS011;9887;54.366;10.958;2024-03-23T14:06:15;6.22;;;1.30;;
19492;SDS011;9887;54.366;10.958;2024-03-23T14:08:42;5.80;;;1.23;;
19492;SDS011;9887;54.366;10.958;2024-03-23T14:11:08;6.18;;;1.30;;
19492;SDS011;9887;54.366;10.958;2024-03-23T14:13:36;6.53;;;1.38;;
19492;SDS011;9887;54.366;10.958;2024-03-23T14:16:04;6.15;;;1.08;;
19492;SDS011;9887;54.366;10.958;2024-03-23T14:18:31;8.35;;;1.55;;
19492;SDS011;9887;54.366;10.958;2024-03-23T14:20:58;10.32;;;1.60;;
19492;SDS011;9887;54.366;10.958;2024-03-23T14:23:25;9.10;;;1.75;;
19492;SDS011;9887;54.366;10.958;2024-03-23T14:25:52;7.35;;;1.35;;
19492;SDS011;9887;54.366;10.958;2024-03-23T14:28:20;9.00;;;1.50;;
19492;SDS011;9887;54.366;10.958;2024-03-23T14:30:47;9.07;;;1.65;;
19492;SDS011;9887;54.366;10.958;2024-03-23T14:33:16;7.20;;;1.45;;
19492;SDS011;9887;54.366;10.958;2024-03-23T14:35:43;9.68;;;1.83;;
19492;SDS011;9887;54.366;10.958;2024-03-23T14:38:11;5.55;;;1.35;;
19492;SDS011;9887;54.366;10.958;2024-03-23T14:40:37;6.43;;;1.33;;
19492;SDS011;9887;54.366;10.958;2024-03-23T14:43:04;4.70;;;1.00;;
19492;SDS011;9887;54.366;10.958;2024-03-23T14:45:30;7.38;;;1.85;;
19492;SDS011;9887;54.366;10.958;2024-03-23T14:47:57;8.07;;;1.35;;
19492;SDS011;9887;54.366;10.958;2024-03-23T14:50:25;3.55;;;0.80;;
19492;SDS011;9887;54.366;10.958;2024-03-23T14:52:52;6.28;;;1.02;;
19492;SDS011;9887;54.366;10.958;2024-03-23T14:55:18;3.75;;;1.00;;
19492;SDS011;9887;54.366;10.958;2024-03-23T14:57:45;5.28;;;1.00;;
19492;SDS011;9887;54.366;10.958;2024-03-23T15:00:12;5.38;;;1.30;;
19492;SDS011;9887;54.366;10.958;2024-03-23T15:02:40;6.47;;;1.23;;
19492;SDS011;9887;54.366;10.958;2024-03-23T15:05:06;5.90;;;1.00;;
19492;SDS011;9887;54.366;10.958;2024-03-23T15:07:37;4.60;;;1.02;;
19492;SDS011;9887;54.366;10.958;2024-03-23T15:10:03;3.05;;;0.85;;
19492;SDS011;9887;54.366;10.958;2024-03-23T15:12:31;2.75;;;0.70;;
19492;SDS011;9887;54.366;10.958;2024-03-23T15:14:58;3.80;;;1.00;;
19492;SDS011;9887;54.366;10.958;2024-03-23T15:17:25;3.47;;;0.90;;
19492;SDS011;9887;54.366;10.958;2024-03-23T15:19:51;4.97;;;0.93;;
19492;SDS011;9887;54.366;10.958;2024-03-23T15:22:19;7.25;;;1.13;;
19492;SDS011;9887;54.366;10.958;2024-03-23T15:24:47;6.47;;;1.20;;
19492;SDS011;9887;54.366;10.958;2024-03-23T15:27:14;3.17;;;1.02;;
19492;SDS011;9887;54.366;10.958;2024-03-23T15:29:40;7.80;;;1.08;;
19492;SDS011;9887;54.366;10.958;2024-03-23T15:32:11;4.65;;;1.40;;